Robinson, IL

10:27 PM CDT on June 26, 2017 (GMT -0500)
Robinson Municipal

Weather History for KRSV - December, 2013

Change the Weather History Date:

Saturday, December 7, 2013

  Actual Average (KLWV) Record (KLWV)
Temperature  
Mean Temperature 12 °F -  
Max Temperature 23 °F 43 °F 62 °F (2004)
Min Temperature 1 °F 29 °F 4 °F (2013)
Degree Days  
Heating Degree Days 53    
Moisture  
Dew Point 10 °F    
Average Humidity 78    
Maximum Humidity 94    
Minimum Humidity 63    
Precipitation  
Precipitation 0.00 in - - ()
Sea Level Pressure  
Sea Level Pressure 30.60 in    
Wind  
Wind Speed 7 mph (North)    
Max Wind Speed 12 mph    
Max Gust Speed -    
Visibility 10 miles    
Events      
Averages and records for this station are not official NWS values.
T = Trace of Precipitation, MM = Missing Value Source: NWS Daily Summary

Daily Weather History Graph

Daily Weather History Graph

Search for Another Location

Airport or City:

Trip Planner

Search our weather history database for the weather conditions in past years. The results will help you decide how hot, cold, wet, or windy it might be!

Date:

Astronomy

Dec. 07, 2013 Rise Set
Actual Time 6:56 AM CST 4:28 PM CST
Civil Twilight 6:26 AM CST 4:57 PM CST
Nautical Twilight 5:53 AM CST 5:31 PM CST
Astronomical Twilight 5:20 AM CST 6:03 PM CST
Moon 10:42 AM CST (12/7) 10:07 PM CST (12/7)
Length of Visible Light 10h 31m
Length of Day
9h 31m
Waxing Crescent, 29% of the Moon is Illuminated
Dec 7
Waxing Crescent
Dec 9
First Quarter
Dec 17
Full
Dec 25
Last Quarter
Jan 1
New

Hourly Weather History & Observations

Time (CST) Temp. Windchill Dew Point Humidity Pressure Visibility Wind Dir Wind Speed Gust Speed Precip Events Conditions
12:15 AM 19.0 °F 7.5 °F 12.6 °F 76% 30.54 in 10.0 mi NNW 10.4 mph - N/A   Overcast
12:35 AM 18.0 °F 7.7 °F 11.8 °F 77% 30.54 in 10.0 mi NNW 8.1 mph - N/A   Mostly Cloudy
12:55 AM 17.2 °F 8.9 °F 11.3 °F 78% 30.55 in 10.0 mi NNW 5.8 mph - N/A   Scattered Clouds
1:15 AM 15.8 °F 8.6 °F 10.4 °F 79% 30.55 in 10.0 mi NNW 4.6 mph - N/A   Clear
1:35 AM 15.3 °F 4.4 °F 10.0 °F 80% 30.55 in 10.0 mi NNW 8.1 mph - N/A   Clear
1:55 AM 14.5 °F 3.6 °F 9.3 °F 80% 30.56 in 10.0 mi NNW 8.1 mph - N/A   Clear
2:15 AM 14.0 °F 3.9 °F 9.3 °F 82% 30.57 in 10.0 mi NNW 6.9 mph - N/A   Clear
2:35 AM 13.8 °F 3.7 °F 9.1 °F 82% 30.57 in 10.0 mi NNW 6.9 mph - N/A   Clear
2:55 AM 13.1 °F 7.1 °F 8.6 °F 82% 30.57 in 10.0 mi NNW 3.5 mph - N/A   Clear
3:15 AM 12.2 °F 6.1 °F 8.4 °F 85% 30.57 in 10.0 mi North 3.5 mph - N/A   Clear
3:35 AM 11.7 °F 2.3 °F 8.1 °F 85% 30.57 in 10.0 mi NNW 5.8 mph - N/A   Clear
3:55 AM 10.8 °F 2.7 °F 7.3 °F 86% 30.58 in 10.0 mi NNW 4.6 mph - N/A   Clear
4:15 AM 10.4 °F 0.8 °F 7.3 °F 87% 30.59 in 10.0 mi NNW 5.8 mph - N/A   Clear
4:35 AM 10.0 °F - 7.0 °F 87% 30.60 in 10.0 mi Calm Calm - N/A   Clear
4:55 AM 10.8 °F - 7.5 °F 87% 30.61 in 10.0 mi Calm Calm - N/A   Clear
5:15 AM 7.7 °F -2.4 °F 5.2 °F 89% 30.60 in 10.0 mi NNW 5.8 mph - N/A   Clear
5:35 AM 8.1 °F -2.0 °F 5.5 °F 89% 30.61 in 10.0 mi NNW 5.8 mph - N/A   Clear
5:55 AM 7.0 °F -3.3 °F 5.5 °F 94% 30.63 in 10.0 mi NW 5.8 mph - N/A   Clear
6:15 AM 3.0 °F -8.0 °F 1.2 °F 92% 30.63 in 10.0 mi NNW 5.8 mph - N/A   Clear
6:35 AM 1.8 °F -7.8 °F 0.1 °F 93% 30.64 in 10.0 mi NNW 4.6 mph - N/A   Clear
6:55 AM 5.0 °F -5.6 °F 3.4 °F 93% 30.64 in 10.0 mi NNW 5.8 mph - N/A   Clear
7:15 AM 5.5 °F -6.3 °F 3.7 °F 92% 30.65 in 10.0 mi NNW 6.9 mph - N/A   Clear
7:35 AM 5.0 °F -4.1 °F 3.0 °F 92% 30.65 in 10.0 mi NNW 4.6 mph - N/A   Clear
7:55 AM 9.5 °F -1.5 °F 7.5 °F 92% 30.65 in 10.0 mi North 6.9 mph - N/A   Clear
8:15 AM 11.5 °F -0.2 °F 9.0 °F 90% 30.66 in 10.0 mi North 8.1 mph - N/A   Clear
8:40 AM 12.9 °F 1.6 °F 8.4 °F 82% 30.67 in 10.0 mi North 8.1 mph - N/A   Clear
8:55 AM 14.0 °F 2.0 °F 8.8 °F 80% 30.68 in 10.0 mi North 9.2 mph - N/A   Clear
9:15 AM 14.9 °F 4.0 °F 9.1 °F 78% 30.69 in 10.0 mi North 8.1 mph - N/A   Clear
9:35 AM 15.4 °F 3.8 °F 9.5 °F 77% 30.69 in 10.0 mi North 9.2 mph - N/A   Clear
9:55 AM 16.2 °F 6.5 °F 9.5 °F 75% 30.69 in 10.0 mi North 6.9 mph - N/A   Clear
10:15 AM 16.7 °F 5.3 °F 10.0 °F 75% 30.69 in 10.0 mi North 9.2 mph - N/A   Clear
10:35 AM 17.8 °F 7.5 °F 10.4 °F 73% 30.69 in 10.0 mi North 8.1 mph - N/A   Clear
10:55 AM 18.5 °F 8.4 °F 10.8 °F 72% 30.69 in 10.0 mi North 8.1 mph - N/A   Clear
11:15 AM 19.4 °F 8.6 °F 11.1 °F 70% 30.67 in 10.0 mi North 9.2 mph - N/A   Clear
11:35 AM 20.1 °F 10.3 °F 11.5 °F 69% 30.67 in 10.0 mi North 8.1 mph - N/A   Clear
11:55 AM 20.7 °F 11.0 °F 11.8 °F 69% 30.65 in 10.0 mi North 8.1 mph - N/A   Clear
12:15 PM 21.2 °F 12.6 °F 12.2 °F 68% 30.65 in 10.0 mi North 6.9 mph - N/A   Clear
12:35 PM 22.1 °F 12.8 °F 12.6 °F 67% 30.65 in 10.0 mi North 8.1 mph - N/A   Clear
12:55 PM 22.8 °F 14.5 °F 13.1 °F 66% 30.64 in 10.0 mi North 6.9 mph - N/A   Clear
1:15 PM 23.0 °F 13.9 °F 13.1 °F 66% 30.63 in 10.0 mi North 8.1 mph - N/A   Clear
1:35 PM 23.4 °F 15.2 °F 12.9 °F 64% 30.62 in 10.0 mi North 6.9 mph - N/A   Clear
1:55 PM 23.9 °F 15.8 °F 12.9 °F 63% 30.62 in 10.0 mi North 6.9 mph - N/A   Clear
2:15 PM 23.7 °F 14.7 °F 13.3 °F 64% 30.61 in 10.0 mi North 8.1 mph - N/A   Clear
2:35 PM 23.7 °F 13.3 °F 13.1 °F 64% 30.61 in 10.0 mi North 10.4 mph - N/A   Clear
2:55 PM 23.5 °F 16.4 °F 13.1 °F 64% 30.61 in 10.0 mi North 5.8 mph - N/A   Clear
3:15 PM 23.5 °F 16.4 °F 12.7 °F 63% 30.61 in 10.0 mi North 5.8 mph - N/A   Clear
3:35 PM 22.3 °F 16.1 °F 12.2 °F 65% 30.61 in 10.0 mi North 4.6 mph - N/A   Clear
3:55 PM 22.1 °F 15.9 °F 11.8 °F 65% 30.61 in 10.0 mi North 4.6 mph - N/A   Clear
4:15 PM 21.0 °F 16.2 °F 11.3 °F 66% 30.61 in 10.0 mi North 3.5 mph - N/A   Clear
4:35 PM 17.4 °F 12.1 °F 10.6 °F 75% 30.61 in 10.0 mi North 3.5 mph - N/A   Clear
4:55 PM 14.4 °F - 9.7 °F 82% 30.61 in 10.0 mi Calm Calm - N/A   Clear
5:15 PM 15.1 °F 7.7 °F 11.5 °F 86% 30.62 in 10.0 mi North 4.6 mph - N/A   Clear
5:35 PM 14.9 °F 7.5 °F 9.5 °F 79% 30.62 in 10.0 mi North 4.6 mph - N/A   Clear
5:55 PM 13.8 °F 6.2 °F 9.3 °F 82% 30.62 in 10.0 mi North 4.6 mph - N/A   Clear
6:15 PM 13.3 °F 5.6 °F 9.0 °F 83% 30.62 in 10.0 mi North 4.6 mph - N/A   Clear
6:35 PM 13.6 °F 3.5 °F 9.5 °F 84% 30.61 in 10.0 mi North 6.9 mph - N/A   Clear
6:55 PM 16.0 °F 7.4 °F 10.2 °F 78% 30.61 in 10.0 mi NNE 5.8 mph - N/A   Clear
7:15 PM 15.3 °F 7.9 °F 10.9 °F 83% 30.60 in 10.0 mi NE 4.6 mph - N/A   Clear
7:35 PM 14.9 °F 7.5 °F 10.9 °F 84% 30.59 in 10.0 mi NE 4.6 mph - N/A   Clear
7:55 PM 14.7 °F 4.8 °F 10.4 °F 83% 30.57 in 10.0 mi NE 6.9 mph - N/A   Clear
8:15 PM 15.3 °F 4.4 °F 10.0 °F 80% 30.56 in 10.0 mi NE 8.1 mph - N/A   Clear
8:35 PM 19.0 °F 6.8 °F 12.2 °F 75% 30.53 in 10.0 mi NE 11.5 mph - N/A   Clear
8:55 PM 20.1 °F 8.8 °F 12.9 °F 74% 30.52 in 10.0 mi NE 10.4 mph - N/A   Clear
9:15 PM 21.7 °F 14.3 °F 14.0 °F 72% 30.54 in 10.0 mi ENE 5.8 mph - N/A   Clear
9:35 PM 20.8 °F 14.4 °F 14.0 °F 75% 30.55 in 10.0 mi ENE 4.6 mph - N/A   Clear
9:55 PM 19.2 °F 9.3 °F 13.3 °F 78% 30.53 in 10.0 mi NE 8.1 mph - N/A   Clear
10:15 PM 20.1 °F 15.2 °F 14.7 °F 80% 30.54 in 10.0 mi NE 3.5 mph - N/A   Clear
10:35 PM 20.1 °F 12.3 °F 15.3 °F 81% 30.53 in 10.0 mi NE 5.8 mph - N/A   Clear
10:55 PM 20.3 °F - 15.6 °F 82% 30.54 in 10.0 mi Calm Calm - N/A   Clear
11:15 PM 20.8 °F - 15.6 °F 80% 30.54 in 10.0 mi Calm Calm - N/A   Clear
11:35 PM 21.2 °F 14.9 °F 16.2 °F 81% 30.53 in 10.0 mi NE 4.6 mph - N/A   Scattered Clouds
11:55 PM 21.7 °F 15.5 °F 16.7 °F 81% 30.51 in 10.0 mi NE 4.6 mph - N/A   Mostly Cloudy